Terminal Aerodrome Forecast
Issued by NWS

Home | Current Version | Previous Version | Text Only | Print | Product List | Glossary On
Versions: 1 2 3 4 5 6 7 8 9 10 11 12 13
000
FTUS41 KRNK 291141
TAFLWB
TAF
KLWB 291141Z 2912/3012 00000KT P6SM OVC100
     FM291700 VRB03KT P6SM -RA OVC060
      TEMPO 2917/2919 5SM -SHRA
     FM300300 00000KT P6SM SCT025 OVC060=

USA.gov is the U.S. government's official web portal to all federal, state and local government web resources and services.